createdAt,value
2022-11-27T00:04:22.435Z,101831.84
2022-11-27T00:09:44.303Z,101830.94
2022-11-27T00:15:06.829Z,101847.25
2022-11-27T00:20:29.790Z,101841.34
2022-11-27T00:25:52.573Z,101843.94
2022-11-27T00:31:20.843Z,101840.59
2022-11-27T00:36:45.369Z,101843.19
2022-11-27T00:42:10.034Z,101827.66
2022-11-27T00:47:31.802Z,101849.78
2022-11-27T00:52:53.570Z,101847.28
2022-11-27T00:58:15.352Z,101848.28
2022-11-27T01:03:37.161Z,101846.56
2022-11-27T01:08:59.922Z,101838.91
2022-11-27T01:14:21.885Z,101834.75
2022-11-27T01:19:43.776Z,101838.06
2022-11-27T01:25:06.207Z,101841.00
2022-11-27T01:30:28.028Z,101852.06
2022-11-27T01:35:57.900Z,101840.16
2022-11-27T01:41:23.020Z,101852.66
2022-11-27T01:46:48.602Z,101850.66
2022-11-27T01:52:25.866Z,101849.88
2022-11-27T01:57:52.183Z,101853.34
2022-11-27T02:03:14.049Z,101850.59
2022-11-27T02:08:35.904Z,101853.25
2022-11-27T02:14:09.703Z,101862.38
2022-11-27T02:20:09.997Z,101874.34
2022-11-27T02:25:47.079Z,101868.00
2022-11-27T02:31:37.524Z,101880.09
2022-11-27T02:37:31.281Z,101878.78
2022-11-27T02:43:02.251Z,101873.97
2022-11-27T02:48:33.274Z,101866.78
2022-11-27T02:53:59.211Z,101886.50
2022-11-27T02:59:22.755Z,101874.91
2022-11-27T03:04:54.134Z,101880.22
2022-11-27T03:10:31.961Z,101881.09
2022-11-27T03:16:20.435Z,101870.69
2022-11-27T03:21:58.659Z,101859.50
2022-11-27T03:27:31.698Z,101862.69
2022-11-27T03:32:53.762Z,101865.81
2022-11-27T03:38:15.750Z,101872.19
2022-11-27T03:43:47.987Z,101871.56
2022-11-27T03:49:24.540Z,101866.66
2022-11-27T03:55:01.593Z,101871.75
2022-11-27T04:00:24.238Z,101881.22
2022-11-27T04:05:46.019Z,101882.50
2022-11-27T04:11:07.787Z,101877.84
2022-11-27T04:16:29.690Z,101880.81
2022-11-27T04:21:51.439Z,101882.03
2022-11-27T04:27:13.218Z,101866.72
2022-11-27T04:32:34.970Z,101883.72
2022-11-27T04:37:57.301Z,101880.19
2022-11-27T04:43:19.772Z,101885.44
2022-11-27T04:48:41.548Z,101885.91
2022-11-27T04:54:03.428Z,101884.09
2022-11-27T04:59:25.203Z,101875.78
2022-11-27T05:04:47.000Z,101877.84
2022-11-27T05:10:09.087Z,101875.34
2022-11-27T05:15:30.874Z,101866.75
2022-11-27T05:21:01.203Z,101881.16
2022-11-27T05:26:22.990Z,101865.84
2022-11-27T05:31:44.979Z,101850.28
2022-11-27T05:37:06.777Z,101867.06
2022-11-27T05:42:28.585Z,101869.84
2022-11-27T05:47:50.406Z,101852.69
2022-11-27T05:53:12.223Z,101864.59
2022-11-27T05:58:34.473Z,101863.91
2022-11-27T06:03:56.251Z,101858.16
2022-11-27T06:09:18.030Z,101858.53
2022-11-27T06:14:40.035Z,101862.84
2022-11-27T06:20:01.986Z,101856.06
2022-11-27T06:25:24.137Z,101858.72
2022-11-27T06:30:45.960Z,101853.50
2022-11-27T06:36:08.298Z,101867.97
2022-11-27T06:41:30.317Z,101871.41
2022-11-27T06:46:53.218Z,101869.78
2022-11-27T06:52:15.115Z,101874.91
2022-11-27T06:57:36.883Z,101867.94
2022-11-27T07:02:58.653Z,101871.38
2022-11-27T07:08:21.337Z,101868.19
2022-11-27T07:13:43.094Z,101861.16
2022-11-27T07:19:06.857Z,101853.31
2022-11-27T07:24:28.670Z,101854.09
2022-11-27T07:29:50.576Z,101859.13
2022-11-27T07:35:12.360Z,101854.88
2022-11-27T07:40:34.174Z,101843.47
2022-11-27T07:45:56.250Z,101856.00
2022-11-27T07:51:20.702Z,101857.25
2022-11-27T07:56:42.628Z,101844.66
2022-11-27T08:02:04.446Z,101859.91
2022-11-27T08:07:30.381Z,101861.00
2022-11-27T08:12:52.193Z,101850.28
2022-11-27T08:18:14.040Z,101844.50
2022-11-27T08:23:35.818Z,101857.88
2022-11-27T08:28:58.063Z,101854.38
2022-11-27T08:34:19.866Z,101845.78
2022-11-27T08:39:41.656Z,101854.38
2022-11-27T08:45:03.723Z,101858.22
2022-11-27T08:50:25.619Z,101865.19
2022-11-27T08:55:47.714Z,101866.94
2022-11-27T09:01:21.589Z,101872.91
2022-11-27T09:06:43.543Z,101858.94
2022-11-27T09:12:05.611Z,101865.69
2022-11-27T09:17:27.479Z,101860.72
2022-11-27T09:22:49.256Z,101877.66
2022-11-27T09:28:11.048Z,101861.69
2022-11-27T09:33:35.008Z,101855.81
2022-11-27T09:38:59.150Z,101860.75
2022-11-27T09:44:23.739Z,101862.06
2022-11-27T09:49:58.614Z,101855.00
2022-11-27T09:55:32.326Z,101853.88
2022-11-27T10:00:54.225Z,101851.28
2022-11-27T10:06:32.958Z,101831.63
2022-11-27T10:12:06.225Z,101844.88
2022-11-27T10:17:49.431Z,101839.16
2022-11-27T10:23:38.615Z,101842.34
2022-11-27T10:29:03.276Z,101834.44
2022-11-27T10:34:34.292Z,101832.31
2022-11-27T10:40:01.693Z,101818.75
2022-11-27T10:45:29.234Z,101820.59
2022-11-27T10:50:51.867Z,101816.19
2022-11-27T10:56:13.615Z,101816.69
2022-11-27T11:01:47.460Z,101811.28
2022-11-27T11:07:29.519Z,101822.53
2022-11-27T11:13:06.662Z,101815.22
2022-11-27T11:18:32.177Z,101811.25
2022-11-27T11:24:23.666Z,101811.53
2022-11-27T11:29:51.445Z,101792.13
2022-11-27T11:35:33.467Z,101800.84
2022-11-27T11:41:02.143Z,101795.53
2022-11-27T11:46:27.196Z,101794.84
2022-11-27T11:52:09.375Z,101799.00
2022-11-27T11:57:56.458Z,101795.53
2022-11-27T12:03:32.178Z,101799.56
2022-11-27T12:09:04.089Z,101792.22
2022-11-27T12:14:49.598Z,101777.47
2022-11-27T12:20:20.795Z,101776.59
2022-11-27T12:25:54.019Z,101785.44
2022-11-27T12:31:39.295Z,101779.31
2022-11-27T12:37:23.220Z,101783.72
2022-11-27T12:43:09.593Z,101759.69
2022-11-27T12:48:34.950Z,101787.50
2022-11-27T12:54:07.450Z,101782.00
2022-11-27T12:59:37.833Z,101757.34
2022-11-27T13:05:11.665Z,101759.91
2022-11-27T13:10:40.399Z,101754.75
2022-11-27T13:16:18.956Z,101759.19
2022-11-27T13:21:42.558Z,101763.44
2022-11-27T13:27:09.932Z,101760.81
2022-11-27T13:32:47.756Z,101768.53
2022-11-27T13:38:23.874Z,101757.31
2022-11-27T13:43:47.284Z,101761.34
2022-11-27T13:49:18.173Z,101758.06
2022-11-27T13:54:51.603Z,101764.00
2022-11-27T14:00:14.376Z,101767.47
2022-11-27T14:05:40.202Z,101755.44
2022-11-27T14:11:11.006Z,101756.22
2022-11-27T14:16:35.320Z,101754.50
2022-11-27T14:21:57.143Z,101757.69
2022-11-27T14:27:23.978Z,101747.66
2022-11-27T14:32:48.355Z,101735.50
2022-11-27T14:38:11.247Z,101742.09
2022-11-27T14:43:34.354Z,101742.03
2022-11-27T14:48:56.539Z,101747.22
2022-11-27T14:54:39.232Z,101734.38
2022-11-27T15:00:16.307Z,101749.69
2022-11-27T15:05:39.109Z,101723.81
2022-11-27T15:11:03.215Z,101725.50
2022-11-27T15:16:28.179Z,101733.38
2022-11-27T15:21:50.591Z,101731.53
2022-11-27T15:27:15.075Z,101732.13
2022-11-27T15:32:51.841Z,101729.94
2022-11-27T15:38:18.305Z,101726.41
2022-11-27T15:43:40.052Z,101726.19
2022-11-27T15:49:01.878Z,101739.28
2022-11-27T15:54:24.473Z,101727.38
2022-11-27T15:59:46.280Z,101724.69
2022-11-27T16:05:08.918Z,101712.56
2022-11-27T16:10:30.692Z,101738.97
2022-11-27T16:15:52.459Z,101736.59
2022-11-27T16:21:16.595Z,101720.91
2022-11-27T16:26:38.676Z,101717.69
2022-11-27T16:32:00.513Z,101715.09
2022-11-27T16:37:22.376Z,101707.19
2022-11-27T16:42:44.152Z,101706.50
2022-11-27T16:48:06.507Z,101709.94
2022-11-27T16:53:28.278Z,101707.38
2022-11-27T16:58:51.058Z,101695.31
2022-11-27T17:04:19.257Z,101703.97
2022-11-27T17:09:41.028Z,101702.22
2022-11-27T17:15:02.898Z,101696.34
2022-11-27T17:20:24.668Z,101702.44
2022-11-27T17:25:46.444Z,101699.09
2022-11-27T17:31:28.339Z,101691.41
2022-11-27T17:36:50.169Z,101679.50
2022-11-27T17:42:14.572Z,101670.22
2022-11-27T17:47:37.947Z,101669.31
2022-11-27T17:52:59.710Z,101683.16
2022-11-27T17:58:21.555Z,101678.84
2022-11-27T18:03:43.431Z,101681.50
2022-11-27T18:09:05.269Z,101682.16
2022-11-27T18:14:27.073Z,101662.47
2022-11-27T18:19:51.499Z,101669.56
2022-11-27T18:25:13.361Z,101666.16
2022-11-27T18:30:35.317Z,101661.16
2022-11-27T18:35:57.080Z,101661.25
2022-11-27T18:41:23.901Z,101640.78
2022-11-27T18:46:45.667Z,101651.91
2022-11-27T18:52:08.373Z,101637.47
2022-11-27T18:57:30.172Z,101645.31
2022-11-27T19:02:52.034Z,101648.19
2022-11-27T19:08:13.856Z,101660.22
2022-11-27T19:13:36.987Z,101653.09
2022-11-27T19:19:00.480Z,101652.00
2022-11-27T19:24:22.245Z,101654.31
2022-11-27T19:29:44.259Z,101669.69
2022-11-27T19:35:07.412Z,101650.19
2022-11-27T19:40:31.245Z,101648.16
2022-11-27T19:45:53.171Z,101652.22
2022-11-27T19:51:15.746Z,101648.66
2022-11-27T19:56:37.529Z,101644.38
2022-11-27T20:01:59.373Z,101646.09
2022-11-27T20:07:21.230Z,101652.84
2022-11-27T20:12:43.058Z,101650.31
2022-11-27T20:18:04.958Z,101642.66
2022-11-27T20:23:26.987Z,101639.22
2022-11-27T20:28:49.734Z,101644.16
2022-11-27T20:34:19.246Z,101641.28
2022-11-27T20:39:41.237Z,101638.31
2022-11-27T20:45:03.370Z,101645.22
2022-11-27T20:50:25.192Z,101640.38
2022-11-27T20:55:47.248Z,101640.38
2022-11-27T21:01:25.961Z,101643.63
2022-11-27T21:06:48.015Z,101638.00
2022-11-27T21:12:09.771Z,101640.94
2022-11-27T21:17:32.099Z,101628.97
2022-11-27T21:22:53.893Z,101648.56
2022-11-27T21:28:15.782Z,101633.84
2022-11-27T21:33:38.040Z,101628.75
2022-11-27T21:39:01.239Z,101640.88
2022-11-27T21:44:24.593Z,101632.47
2022-11-27T21:49:50.024Z,101634.59
2022-11-27T21:55:12.397Z,101621.59
2022-11-27T22:00:35.684Z,101636.31
2022-11-27T22:06:03.097Z,101634.59
2022-11-27T22:11:27.403Z,101629.44
2022-11-27T22:16:49.291Z,101620.72
2022-11-27T22:22:11.451Z,101622.69
2022-11-27T22:27:33.332Z,101609.84
2022-11-27T22:32:58.370Z,101608.34
2022-11-27T22:38:20.222Z,101601.66
2022-11-27T22:43:42.754Z,101598.09
2022-11-27T22:49:06.381Z,101589.28
2022-11-27T22:54:28.199Z,101589.84
2022-11-27T22:59:50.135Z,101586.00
2022-11-27T23:05:11.926Z,101595.59
2022-11-27T23:10:33.771Z,101600.56
2022-11-27T23:15:55.649Z,101591.94
2022-11-27T23:21:19.848Z,101592.19
2022-11-27T23:26:42.376Z,101586.72
2022-11-27T23:32:04.410Z,101584.97
2022-11-27T23:37:27.475Z,101579.97
2022-11-27T23:42:49.291Z,101569.00
2022-11-27T23:48:11.156Z,101575.94
2022-11-27T23:53:32.981Z,101566.47
2022-11-27T23:58:55.933Z,101557.00
